createdAt,value
2022-08-03T00:01:49.131Z,20.06
2022-08-03T00:03:51.833Z,20.10
2022-08-03T00:06:03.956Z,20.12
2022-08-03T00:08:08.445Z,20.12
2022-08-03T00:10:11.538Z,20.12
2022-08-03T00:12:14.735Z,20.12
2022-08-03T00:14:17.725Z,20.18
2022-08-03T00:16:20.559Z,20.26
2022-08-03T00:18:26.034Z,20.20
2022-08-03T00:20:29.570Z,20.06
2022-08-03T00:22:32.221Z,20.08
2022-08-03T00:24:36.365Z,20.09
2022-08-03T00:26:39.130Z,20.11
2022-08-03T00:28:42.052Z,20.14
2022-08-03T00:30:44.954Z,20.06
2022-08-03T00:32:47.651Z,19.88
2022-08-03T00:34:57.697Z,19.78
2022-08-03T00:37:01.731Z,19.82
2022-08-03T00:39:05.021Z,19.89
2022-08-03T00:41:09.152Z,19.88
2022-08-03T00:43:12.001Z,19.85
2022-08-03T00:45:14.649Z,19.75
2022-08-03T00:47:17.333Z,19.65
2022-08-03T00:49:20.233Z,19.56
2022-08-03T00:51:23.533Z,19.66
2022-08-03T00:53:28.152Z,19.69
2022-08-03T00:55:31.029Z,19.64
2022-08-03T00:57:37.526Z,19.59
2022-08-03T00:59:40.474Z,19.61
2022-08-03T01:01:43.251Z,19.64
2022-08-03T01:03:46.051Z,19.63
2022-08-03T01:05:54.240Z,19.67
2022-08-03T01:08:04.829Z,19.64
2022-08-03T01:10:14.431Z,19.66
2022-08-03T01:12:26.288Z,19.58
2022-08-03T01:14:35.092Z,19.59
2022-08-03T01:16:53.332Z,19.60
2022-08-03T01:19:03.501Z,19.48
2022-08-03T01:21:13.460Z,19.32
2022-08-03T01:23:53.261Z,19.26
2022-08-03T01:26:14.928Z,19.19
2022-08-03T01:28:48.495Z,19.25
2022-08-03T01:30:57.474Z,19.22
2022-08-03T01:33:03.979Z,19.18
2022-08-03T01:35:11.673Z,19.09
2022-08-03T01:37:23.045Z,19.09
2022-08-03T01:39:28.143Z,19.13
2022-08-03T01:41:34.248Z,19.10
2022-08-03T01:44:28.606Z,19.08
2022-08-03T01:46:06.480Z,19.02
2022-08-03T01:48:10.762Z,18.99
2022-08-03T01:50:15.816Z,18.98
2022-08-03T01:52:22.576Z,19.05
2022-08-03T01:54:26.915Z,19.00
2022-08-03T01:56:32.375Z,18.95
2022-08-03T01:58:37.553Z,18.97
2022-08-03T02:00:41.957Z,18.98
2022-08-03T02:02:48.947Z,19.00
2022-08-03T02:04:55.331Z,19.03
2022-08-03T02:07:02.039Z,19.09
2022-08-03T02:09:07.705Z,19.13
2022-08-03T02:11:10.712Z,19.13
2022-08-03T02:13:15.211Z,19.21
2022-08-03T02:15:20.382Z,19.16
2022-08-03T02:17:38.552Z,19.18
2022-08-03T02:19:45.500Z,19.13
2022-08-03T02:21:56.982Z,19.01
2022-08-03T02:24:05.334Z,19.08
2022-08-03T02:26:11.529Z,18.99
2022-08-03T02:28:19.217Z,18.81
2022-08-03T02:30:25.515Z,18.78
2022-08-03T02:32:32.215Z,18.63
2022-08-03T02:34:37.151Z,18.70
2022-08-03T02:36:43.871Z,18.67
2022-08-03T02:38:50.331Z,18.68
2022-08-03T02:40:57.428Z,18.70
2022-08-03T02:43:05.029Z,18.78
2022-08-03T02:45:12.356Z,18.64
2022-08-03T02:47:16.583Z,18.52
2022-08-03T02:49:41.442Z,18.54
2022-08-03T02:51:45.996Z,18.39
2022-08-03T02:53:50.084Z,18.36
2022-08-03T02:55:54.729Z,18.27
2022-08-03T02:58:01.289Z,18.47
2022-08-03T03:00:06.611Z,18.26
2022-08-03T03:02:11.032Z,18.37
2022-08-03T03:04:14.974Z,18.41
2022-08-03T03:06:18.415Z,18.45
2022-08-03T03:08:25.996Z,18.46
2022-08-03T03:10:30.493Z,18.43
2022-08-03T03:12:34.607Z,18.37
2022-08-03T03:14:38.469Z,18.39
2022-08-03T03:16:42.943Z,18.23
2022-08-03T03:18:47.443Z,18.06
2022-08-03T03:20:50.888Z,18.03
2022-08-03T03:22:54.419Z,18.04
2022-08-03T03:24:58.795Z,18.01
2022-08-03T03:27:02.127Z,18.00
2022-08-03T03:29:05.671Z,18.10
2022-08-03T03:31:09.065Z,18.10
2022-08-03T03:33:11.969Z,18.16
2022-08-03T03:35:15.305Z,18.10
2022-08-03T03:37:18.055Z,18.11
2022-08-03T03:39:20.702Z,18.11
2022-08-03T03:41:25.223Z,18.21
2022-08-03T03:43:29.476Z,18.16
2022-08-03T03:45:32.762Z,18.11
2022-08-03T03:47:36.041Z,18.04
2022-08-03T03:49:38.973Z,18.07
2022-08-03T03:51:41.770Z,18.04
2022-08-03T03:53:55.896Z,18.15
2022-08-03T03:56:02.901Z,18.06
2022-08-03T03:58:07.776Z,18.20
2022-08-03T04:00:11.673Z,18.15
2022-08-03T04:02:14.581Z,18.04
2022-08-03T04:04:34.997Z,18.02
2022-08-03T04:06:55.403Z,18.22
2022-08-03T04:09:15.974Z,18.07
2022-08-03T04:11:29.186Z,18.07
2022-08-03T04:13:38.667Z,18.15
2022-08-03T04:15:42.247Z,18.21
2022-08-03T04:17:46.187Z,18.18
2022-08-03T04:19:51.487Z,18.26
2022-08-03T04:21:57.470Z,18.33
2022-08-03T04:24:05.177Z,18.30
2022-08-03T04:26:10.700Z,18.17
2022-08-03T04:28:29.587Z,18.27
2022-08-03T04:30:38.590Z,18.09
2022-08-03T04:32:45.929Z,17.98
2022-08-03T04:34:48.956Z,17.91
2022-08-03T04:36:57.584Z,17.91
2022-08-03T04:39:03.393Z,17.88
2022-08-03T04:41:06.619Z,17.94
2022-08-03T04:43:10.968Z,17.97
2022-08-03T04:45:15.935Z,18.02
2022-08-03T04:47:21.017Z,18.10
2022-08-03T04:49:24.354Z,18.62
2022-08-03T04:51:27.405Z,18.85
2022-08-03T04:53:30.082Z,19.23
2022-08-03T04:55:34.949Z,19.51
2022-08-03T04:57:37.647Z,19.73
2022-08-03T04:59:40.955Z,20.40
2022-08-03T05:01:43.731Z,20.32
2022-08-03T05:03:47.917Z,19.89
2022-08-03T05:05:50.934Z,19.76
2022-08-03T05:07:53.670Z,19.63
2022-08-03T05:10:01.518Z,19.68
2022-08-03T05:12:06.892Z,19.41
2022-08-03T05:14:09.641Z,19.18
2022-08-03T05:16:13.704Z,19.14
2022-08-03T05:18:16.737Z,19.12
2022-08-03T05:20:20.957Z,19.18
2022-08-03T05:22:24.310Z,19.25
2022-08-03T05:24:27.253Z,19.28
2022-08-03T05:26:30.171Z,19.29
2022-08-03T05:28:32.878Z,19.50
2022-08-03T05:30:35.542Z,19.52
2022-08-03T05:32:38.231Z,19.45
2022-08-03T05:34:40.940Z,19.66
2022-08-03T05:36:44.947Z,19.74
2022-08-03T05:38:47.739Z,19.69
2022-08-03T05:40:57.541Z,19.93
2022-08-03T05:43:13.193Z,19.80
2022-08-03T05:45:17.617Z,19.73
2022-08-03T05:47:20.384Z,19.94
2022-08-03T05:49:23.070Z,19.92
2022-08-03T05:51:25.756Z,19.92
2022-08-03T05:53:29.745Z,20.07
2022-08-03T05:55:32.747Z,20.23
2022-08-03T05:57:35.522Z,20.29
2022-08-03T05:59:39.626Z,20.47
2022-08-03T06:01:57.373Z,20.58
2022-08-03T06:04:00.562Z,20.67
2022-08-03T06:06:03.301Z,20.83
2022-08-03T06:08:06.604Z,20.97
2022-08-03T06:10:37.535Z,21.23
2022-08-03T06:12:35.955Z,21.17
2022-08-03T06:14:38.652Z,21.56
2022-08-03T06:16:41.431Z,21.66
2022-08-03T06:18:44.060Z,22.05
2022-08-03T06:20:47.175Z,22.35
2022-08-03T06:23:00.437Z,22.83
2022-08-03T06:25:07.511Z,23.15
2022-08-03T06:27:14.214Z,23.06
2022-08-03T06:29:16.948Z,23.91
2022-08-03T06:31:19.678Z,23.46
2022-08-03T06:33:22.525Z,24.27
2022-08-03T06:35:25.270Z,24.49
2022-08-03T06:37:28.783Z,24.80
2022-08-03T06:39:31.454Z,24.77
2022-08-03T06:41:37.244Z,24.68
2022-08-03T06:44:03.553Z,24.71
2022-08-03T06:46:06.274Z,24.60
2022-08-03T06:48:10.928Z,24.51
2022-08-03T06:50:16.829Z,24.16
2022-08-03T06:52:38.212Z,24.15
2022-08-03T06:54:43.376Z,24.88
2022-08-03T06:56:46.067Z,25.16
2022-08-03T06:58:50.140Z,26.49
2022-08-03T07:00:53.110Z,26.58
2022-08-03T07:02:58.257Z,26.79
2022-08-03T07:05:01.253Z,28.17
2022-08-03T07:07:04.072Z,27.09
2022-08-03T07:09:06.780Z,26.68
2022-08-03T07:11:09.487Z,27.09
2022-08-03T07:13:12.873Z,27.98
2022-08-03T07:15:20.517Z,28.64
2022-08-03T07:17:41.022Z,28.65
2022-08-03T07:19:43.716Z,29.46
2022-08-03T07:21:47.317Z,29.42
2022-08-03T07:23:50.131Z,29.86
2022-08-03T07:25:53.099Z,30.10
2022-08-03T07:27:55.760Z,29.37
2022-08-03T07:29:59.719Z,30.45
2022-08-03T07:32:04.830Z,29.66
2022-08-03T07:34:07.525Z,28.65
2022-08-03T07:36:10.281Z,29.31
2022-08-03T07:38:13.004Z,30.46
2022-08-03T07:40:17.657Z,29.14
2022-08-03T07:42:20.487Z,29.23
2022-08-03T07:44:23.263Z,29.06
2022-08-03T07:46:26.717Z,29.16
2022-08-03T07:48:30.954Z,29.54
2022-08-03T07:50:33.649Z,29.55
2022-08-03T07:52:52.058Z,29.43
2022-08-03T07:54:54.866Z,30.02
2022-08-03T07:56:57.613Z,31.77
2022-08-03T07:59:02.018Z,33.02
2022-08-03T08:01:04.765Z,32.81
2022-08-03T08:03:07.636Z,31.19
2022-08-03T08:05:12.549Z,31.09
2022-08-03T08:07:15.277Z,31.49
2022-08-03T08:09:18.221Z,30.90
2022-08-03T08:11:22.194Z,30.65
2022-08-03T08:13:25.496Z,29.49
2022-08-03T08:15:28.641Z,30.61
2022-08-03T08:17:31.493Z,30.63
2022-08-03T08:19:36.802Z,31.32
2022-08-03T08:21:53.884Z,31.59
2022-08-03T08:24:10.942Z,31.04
2022-08-03T08:26:21.094Z,33.82
2022-08-03T08:28:32.151Z,35.30
2022-08-03T08:30:36.595Z,32.70
2022-08-03T08:32:39.336Z,33.32
2022-08-03T08:34:42.004Z,35.37
2022-08-03T08:36:46.080Z,32.05
2022-08-03T08:38:49.955Z,31.63
2022-08-03T08:40:52.691Z,32.04
2022-08-03T08:42:58.416Z,32.57
2022-08-03T08:45:02.320Z,33.11
2022-08-03T08:47:05.188Z,33.78
2022-08-03T08:49:10.654Z,32.09
2022-08-03T08:51:14.411Z,32.44
2022-08-03T08:53:21.780Z,33.90
2022-08-03T08:55:58.897Z,32.22
2022-08-03T08:57:59.996Z,34.73
2022-08-03T09:00:03.189Z,35.45
2022-08-03T09:02:06.038Z,35.38
2022-08-03T09:04:09.546Z,33.64
2022-08-03T09:06:12.291Z,32.83
2022-08-03T09:08:15.623Z,32.96
2022-08-03T09:10:21.961Z,34.24
2022-08-03T09:12:42.171Z,34.60
2022-08-03T09:15:07.242Z,35.44
2022-08-03T09:17:10.210Z,35.16
2022-08-03T09:19:20.159Z,36.22
2022-08-03T09:21:31.801Z,36.39
2022-08-03T09:24:01.469Z,34.80
2022-08-03T09:26:07.443Z,34.60
2022-08-03T09:28:12.421Z,34.02
2022-08-03T09:30:33.300Z,34.74
2022-08-03T09:32:38.427Z,34.39
2022-08-03T09:34:41.184Z,36.61
2022-08-03T09:36:45.797Z,35.41
2022-08-03T09:39:04.469Z,34.99
2022-08-03T09:41:19.647Z,35.10
2022-08-03T09:43:23.597Z,35.63
2022-08-03T09:45:30.019Z,35.02
2022-08-03T09:47:36.244Z,35.47
2022-08-03T09:49:41.204Z,36.27
2022-08-03T09:52:33.053Z,36.60
2022-08-03T09:54:15.090Z,34.94
2022-08-03T09:56:35.605Z,35.87
2022-08-03T09:58:47.281Z,35.39
2022-08-03T10:00:58.854Z,35.41
2022-08-03T10:03:05.781Z,34.57
2022-08-03T10:05:10.707Z,35.53
2022-08-03T10:07:24.462Z,34.22
2022-08-03T10:09:27.237Z,35.85
2022-08-03T10:11:36.205Z,36.01
2022-08-03T10:13:43.834Z,34.55
2022-08-03T10:16:22.644Z,35.02
2022-08-03T10:18:10.083Z,35.75
2022-08-03T10:20:13.345Z,35.49
2022-08-03T10:22:19.861Z,36.75
2022-08-03T10:24:27.225Z,36.74
2022-08-03T10:26:35.077Z,35.38
2022-08-03T10:28:45.449Z,35.92
2022-08-03T10:30:51.576Z,33.62
2022-08-03T10:33:02.293Z,33.69
2022-08-03T10:35:20.658Z,33.84
2022-08-03T10:37:26.140Z,32.61
2022-08-03T10:39:30.460Z,33.64
2022-08-03T10:41:38.682Z,32.97
2022-08-03T10:43:48.985Z,32.65
2022-08-03T10:45:52.737Z,33.30
2022-08-03T10:47:57.196Z,32.95
2022-08-03T10:50:01.063Z,32.86
2022-08-03T10:52:12.859Z,33.07
2022-08-03T10:55:03.086Z,32.28
2022-08-03T10:57:27.571Z,31.15
2022-08-03T10:59:58.937Z,32.29
2022-08-03T11:02:01.709Z,32.24
2022-08-03T11:04:17.206Z,31.34
2022-08-03T11:06:21.555Z,31.65
2022-08-03T11:08:35.925Z,31.73
2022-08-03T11:10:39.056Z,31.78
2022-08-03T11:12:44.248Z,31.02
2022-08-03T11:14:48.715Z,31.58
2022-08-03T11:17:06.971Z,32.26
2022-08-03T11:19:11.879Z,32.37
2022-08-03T11:21:14.634Z,32.58
2022-08-03T11:23:19.231Z,32.46
2022-08-03T11:26:10.604Z,32.23
2022-08-03T11:28:30.565Z,31.96
2022-08-03T11:30:33.492Z,32.22
2022-08-03T11:32:58.238Z,31.62
2022-08-03T11:35:11.137Z,31.78
2022-08-03T11:37:28.543Z,31.39
2022-08-03T11:39:43.471Z,31.57
2022-08-03T11:41:46.341Z,31.25
2022-08-03T11:43:50.559Z,31.74
2022-08-03T11:45:58.593Z,32.30
2022-08-03T11:48:13.854Z,32.76
2022-08-03T11:50:17.181Z,32.33
2022-08-03T11:52:27.555Z,32.70
2022-08-03T11:54:32.377Z,32.64
2022-08-03T11:56:46.136Z,32.50
2022-08-03T11:59:01.386Z,32.21
2022-08-03T12:01:21.273Z,32.78
2022-08-03T12:03:25.867Z,32.26
2022-08-03T12:05:40.197Z,32.47
2022-08-03T12:08:03.951Z,32.55
2022-08-03T12:10:08.431Z,32.60
2022-08-03T12:12:11.753Z,32.87
2022-08-03T12:14:49.417Z,32.81
2022-08-03T12:16:47.813Z,32.51
2022-08-03T12:18:56.318Z,32.96
2022-08-03T12:21:06.978Z,31.81
2022-08-03T12:23:10.786Z,32.10
2022-08-03T12:25:38.460Z,32.16
2022-08-03T12:27:42.332Z,32.69
2022-08-03T12:29:58.828Z,32.52
2022-08-03T12:32:02.289Z,32.62
2022-08-03T12:34:07.127Z,32.62
2022-08-03T12:36:11.300Z,32.60
2022-08-03T12:38:14.436Z,33.03
2022-08-03T12:40:28.156Z,32.32
2022-08-03T12:42:31.476Z,32.29
2022-08-03T12:44:35.796Z,32.81
2022-08-03T12:46:47.404Z,32.15
2022-08-03T12:49:06.732Z,32.29
2022-08-03T12:51:10.670Z,32.70
2022-08-03T12:53:13.360Z,32.85
2022-08-03T12:55:20.926Z,33.11
2022-08-03T12:57:24.004Z,32.97
2022-08-03T12:59:32.280Z,32.74
2022-08-03T13:01:39.268Z,32.18
2022-08-03T13:03:57.716Z,31.96
2022-08-03T13:06:02.804Z,32.46
2022-08-03T13:08:05.946Z,32.15
2022-08-03T13:10:09.656Z,32.65
2022-08-03T13:12:15.670Z,32.45
2022-08-03T13:14:20.379Z,31.92
2022-08-03T13:16:24.479Z,32.32
2022-08-03T13:18:28.508Z,32.63
2022-08-03T13:20:31.369Z,32.53
2022-08-03T13:22:34.553Z,32.60
2022-08-03T13:24:37.367Z,32.88
2022-08-03T13:26:40.149Z,32.84
2022-08-03T13:28:43.048Z,33.03
2022-08-03T13:30:45.786Z,32.01
2022-08-03T13:32:48.518Z,32.35
2022-08-03T13:34:52.675Z,32.68
2022-08-03T13:37:10.883Z,33.03
2022-08-03T13:39:14.020Z,32.79
2022-08-03T13:41:17.031Z,33.08
2022-08-03T13:43:20.476Z,32.38
2022-08-03T13:45:24.260Z,32.71
2022-08-03T13:47:27.321Z,32.53
2022-08-03T13:49:30.076Z,32.60
2022-08-03T13:51:34.632Z,32.30
2022-08-03T13:53:37.330Z,32.68
2022-08-03T13:55:40.231Z,32.44
2022-08-03T13:58:12.106Z,31.87
2022-08-03T14:00:07.915Z,31.80
2022-08-03T14:02:10.737Z,31.99
2022-08-03T14:04:17.536Z,32.21
2022-08-03T14:06:25.885Z,32.60
2022-08-03T14:08:30.363Z,32.59
2022-08-03T14:10:33.780Z,32.48
2022-08-03T14:12:36.473Z,32.44
2022-08-03T14:14:39.306Z,32.49
2022-08-03T14:16:43.149Z,32.76
2022-08-03T14:18:47.883Z,32.67
2022-08-03T14:20:54.378Z,32.44
2022-08-03T14:22:59.080Z,32.50
2022-08-03T14:25:03.174Z,32.16
2022-08-03T14:27:09.365Z,32.43
2022-08-03T14:29:12.195Z,32.68
2022-08-03T14:32:09.087Z,32.73
2022-08-03T14:33:37.648Z,32.71
2022-08-03T14:35:40.414Z,32.63
2022-08-03T14:37:43.196Z,32.48
2022-08-03T14:40:02.349Z,32.54
2022-08-03T14:42:06.969Z,32.59
2022-08-03T14:44:09.903Z,32.36
2022-08-03T14:46:12.792Z,32.31
2022-08-03T14:50:33.284Z,32.36
2022-08-03T14:50:43.124Z,32.29
2022-08-03T14:52:48.418Z,32.26
2022-08-03T14:54:51.160Z,32.12
2022-08-03T14:56:53.833Z,32.11
2022-08-03T14:58:57.991Z,32.20
2022-08-03T15:01:00.671Z,31.95
2022-08-03T15:03:03.695Z,32.00
2022-08-03T15:05:07.605Z,32.08
2022-08-03T15:07:10.528Z,31.61
2022-08-03T15:09:22.593Z,31.51
2022-08-03T15:11:26.115Z,31.91
2022-08-03T15:13:28.752Z,32.03
2022-08-03T15:15:32.815Z,31.99
2022-08-03T15:17:35.725Z,32.04
2022-08-03T15:20:02.236Z,32.10
2022-08-03T15:22:02.226Z,32.16
2022-08-03T15:24:05.519Z,32.22
2022-08-03T15:26:32.398Z,31.85
2022-08-03T15:28:31.069Z,32.08
2022-08-03T15:30:36.886Z,31.82
2022-08-03T15:32:39.672Z,31.90
2022-08-03T15:34:42.548Z,32.00
2022-08-03T15:36:53.649Z,31.93
2022-08-03T15:38:56.433Z,32.12
2022-08-03T15:40:59.312Z,31.91
2022-08-03T15:43:02.538Z,31.93
2022-08-03T15:45:06.106Z,31.89
2022-08-03T15:47:10.356Z,32.04
2022-08-03T15:49:13.710Z,32.04
2022-08-03T15:51:16.496Z,32.07
2022-08-03T15:53:19.290Z,32.26
2022-08-03T15:55:21.967Z,32.12
2022-08-03T15:57:25.090Z,32.10
2022-08-03T15:59:27.767Z,32.02
2022-08-03T16:01:31.517Z,31.98
2022-08-03T16:03:36.191Z,31.87
2022-08-03T16:05:39.386Z,31.75
2022-08-03T16:08:03.932Z,31.96
2022-08-03T16:10:08.587Z,31.93
2022-08-03T16:12:14.579Z,31.92
2022-08-03T16:14:34.381Z,31.85
2022-08-03T16:16:40.982Z,31.83
2022-08-03T16:18:45.126Z,31.73
2022-08-03T16:20:48.332Z,31.72
2022-08-03T16:22:51.176Z,31.86
2022-08-03T16:24:54.793Z,31.64
2022-08-03T16:26:57.840Z,31.72
2022-08-03T16:29:03.384Z,31.78
2022-08-03T16:31:08.964Z,31.76
2022-08-03T16:33:17.201Z,31.87
2022-08-03T16:35:21.843Z,31.77
2022-08-03T16:37:39.979Z,31.58
2022-08-03T16:39:42.689Z,31.71
2022-08-03T16:41:53.898Z,31.52
2022-08-03T16:44:06.688Z,31.47
2022-08-03T16:46:12.693Z,31.55
2022-08-03T16:48:16.066Z,31.44
2022-08-03T16:50:20.044Z,31.49
2022-08-03T16:52:24.755Z,31.45
2022-08-03T16:54:28.040Z,31.31
2022-08-03T16:56:32.153Z,31.27
2022-08-03T16:58:42.075Z,31.29
2022-08-03T17:00:46.409Z,31.26
2022-08-03T17:02:52.904Z,31.32
2022-08-03T17:04:57.980Z,31.29
2022-08-03T17:07:03.021Z,31.30
2022-08-03T17:09:10.030Z,31.24
2022-08-03T17:11:13.341Z,31.12
2022-08-03T17:13:22.576Z,31.02
2022-08-03T17:15:51.709Z,31.03
2022-08-03T17:18:02.494Z,31.07
2022-08-03T17:20:10.331Z,31.01
2022-08-03T17:22:15.845Z,31.08
2022-08-03T17:24:27.938Z,30.99
2022-08-03T17:26:32.872Z,30.89
2022-08-03T17:28:50.203Z,30.86
2022-08-03T17:31:23.029Z,30.91
2022-08-03T17:33:35.591Z,30.80
2022-08-03T17:35:38.754Z,30.87
2022-08-03T17:37:58.363Z,30.84
2022-08-03T17:40:08.610Z,30.80
2022-08-03T17:42:26.857Z,30.82
2022-08-03T17:44:37.630Z,30.66
2022-08-03T17:46:46.938Z,30.60
2022-08-03T17:48:49.904Z,30.56
2022-08-03T17:50:56.527Z,30.50
2022-08-03T17:53:07.702Z,30.40
2022-08-03T17:55:56.877Z,30.34
2022-08-03T17:58:02.750Z,30.22
2022-08-03T18:00:22.936Z,30.13
2022-08-03T18:02:55.272Z,30.11
2022-08-03T18:05:16.305Z,29.99
2022-08-03T18:07:41.496Z,29.89
2022-08-03T18:12:17.716Z,29.83
2022-08-03T18:14:30.366Z,29.66
2022-08-03T18:16:38.307Z,29.48
2022-08-03T18:18:43.504Z,29.57
2022-08-03T18:20:48.515Z,29.59
2022-08-03T18:22:51.803Z,29.18
2022-08-03T18:24:56.934Z,29.28
2022-08-03T18:27:02.405Z,29.21
2022-08-03T18:29:08.255Z,29.30
2022-08-03T18:31:59.540Z,29.03
2022-08-03T18:34:16.860Z,28.93
2022-08-03T18:36:04.125Z,28.82
2022-08-03T18:38:10.231Z,28.91
2022-08-03T18:40:13.709Z,28.69
2022-08-03T18:42:26.174Z,28.55
2022-08-03T18:44:45.570Z,28.55
2022-08-03T18:47:07.101Z,28.53
2022-08-03T18:49:29.774Z,28.47
2022-08-03T18:51:43.194Z,28.28
2022-08-03T18:56:24.756Z,28.02
2022-08-03T18:58:36.349Z,27.87
2022-08-03T19:00:55.035Z,27.90
2022-08-03T19:03:05.155Z,27.79
2022-08-03T19:05:10.115Z,27.83
2022-08-03T19:07:25.098Z,27.74
2022-08-03T19:09:41.579Z,27.82
2022-08-03T19:12:12.504Z,27.74
2022-08-03T19:14:12.614Z,27.82
2022-08-03T19:16:22.722Z,27.77
2022-08-03T19:18:28.428Z,27.61
2022-08-03T19:20:32.019Z,27.51
2022-08-03T19:22:35.179Z,27.71
2022-08-03T19:24:40.224Z,27.58
2022-08-03T19:26:43.069Z,27.52
2022-08-03T19:28:54.264Z,27.32
2022-08-03T19:31:02.580Z,27.13
2022-08-03T19:33:12.555Z,27.34
2022-08-03T19:35:19.001Z,27.32
2022-08-03T19:37:40.062Z,27.40
2022-08-03T19:39:44.296Z,27.28
2022-08-03T19:42:22.942Z,27.52
2022-08-03T19:44:31.463Z,27.39
2022-08-03T19:46:42.836Z,27.42
2022-08-03T19:48:55.317Z,27.41
2022-08-03T19:50:59.160Z,27.31
2022-08-03T19:53:06.084Z,27.33
2022-08-03T19:55:17.166Z,27.38
2022-08-03T19:57:23.505Z,27.29
2022-08-03T19:59:27.435Z,27.29
2022-08-03T20:01:30.600Z,27.37
2022-08-03T20:03:54.539Z,27.30
2022-08-03T20:05:58.083Z,27.19
2022-08-03T20:08:04.352Z,27.32
2022-08-03T20:10:08.876Z,27.30
2022-08-03T20:12:11.863Z,27.29
2022-08-03T20:14:26.182Z,27.23
2022-08-03T20:16:29.051Z,27.18
2022-08-03T20:18:35.952Z,27.24
2022-08-03T20:20:43.306Z,27.23
2022-08-03T20:22:52.581Z,27.25
2022-08-03T20:24:58.467Z,27.16
2022-08-03T20:27:03.629Z,27.20
2022-08-03T20:29:12.628Z,27.19
2022-08-03T20:31:15.357Z,27.25
2022-08-03T20:33:19.446Z,27.19
2022-08-03T20:35:30.305Z,27.10
2022-08-03T20:37:35.587Z,27.09
2022-08-03T20:39:40.722Z,27.09
2022-08-03T20:41:51.179Z,26.98
2022-08-03T20:43:54.041Z,26.95
2022-08-03T20:46:01.243Z,26.80
2022-08-03T20:48:22.014Z,26.71
2022-08-03T20:50:25.296Z,26.50
2022-08-03T20:52:28.807Z,26.44
2022-08-03T20:54:33.576Z,26.46
2022-08-03T20:56:37.024Z,26.32
2022-08-03T20:58:41.553Z,26.40
2022-08-03T21:00:44.741Z,26.31
2022-08-03T21:02:47.438Z,26.36
2022-08-03T21:04:50.196Z,26.49
2022-08-03T21:07:00.592Z,26.35
2022-08-03T21:09:06.817Z,26.29
2022-08-03T21:11:18.724Z,26.17
2022-08-03T21:13:04.990Z,29.75
2022-08-03T21:13:08.338Z,27.99
2022-08-03T21:13:25.656Z,26.17
2022-08-03T21:16:06.615Z,26.23
2022-08-03T21:17:55.372Z,26.09
2022-08-03T21:20:03.037Z,26.06
2022-08-03T21:22:09.232Z,25.98
2022-08-03T21:24:14.054Z,25.91
2022-08-03T21:26:19.730Z,25.81
2022-08-03T21:28:27.395Z,25.77
2022-08-03T21:30:31.496Z,25.64
2022-08-03T21:32:34.711Z,25.56
2022-08-03T21:34:37.458Z,25.54
2022-08-03T21:36:40.183Z,25.46
2022-08-03T21:38:43.708Z,25.61
2022-08-03T21:40:51.693Z,25.58
2022-08-03T21:42:55.773Z,25.52
2022-08-03T21:44:58.592Z,25.50
2022-08-03T21:47:03.246Z,25.41
2022-08-03T21:50:02.688Z,25.40
2022-08-03T21:51:33.764Z,25.34
2022-08-03T21:54:02.943Z,25.28
2022-08-03T21:56:06.399Z,25.21
2022-08-03T21:58:15.033Z,25.13
2022-08-03T22:00:19.473Z,25.08
2022-08-03T22:02:25.572Z,25.00
2022-08-03T22:04:50.375Z,24.93
2022-08-03T22:06:52.126Z,24.96
2022-08-03T22:08:54.930Z,24.93
2022-08-03T22:10:57.992Z,24.90
2022-08-03T22:13:07.338Z,24.97
2022-08-03T22:15:14.668Z,24.98
2022-08-03T22:17:53.425Z,24.88
2022-08-03T22:19:42.239Z,24.73
2022-08-03T22:21:49.317Z,24.51
2022-08-03T22:23:53.976Z,24.70
2022-08-03T22:25:58.248Z,24.73
2022-08-03T22:28:06.000Z,24.71
2022-08-03T22:30:13.520Z,24.51
2022-08-03T22:32:16.302Z,24.49
2022-08-03T22:34:26.492Z,24.47
2022-08-03T22:36:30.680Z,24.47
2022-08-03T22:38:34.249Z,24.33
2022-08-03T22:40:38.269Z,24.12
2022-08-03T22:42:43.072Z,24.16
2022-08-03T22:44:47.278Z,24.20
2022-08-03T22:46:51.618Z,24.09
2022-08-03T22:48:54.426Z,24.12
2022-08-03T22:50:58.622Z,24.08
2022-08-03T22:53:01.735Z,23.93
2022-08-03T22:55:07.286Z,24.06
2022-08-03T22:57:10.249Z,24.17
2022-08-03T22:59:40.599Z,24.25
2022-08-03T23:01:43.170Z,24.11
2022-08-03T23:03:59.205Z,24.07
2022-08-03T23:06:03.793Z,23.91
2022-08-03T23:08:09.844Z,23.86
2022-08-03T23:10:14.587Z,23.89
2022-08-03T23:12:20.286Z,24.04
2022-08-03T23:14:24.118Z,24.00
2022-08-03T23:16:29.712Z,23.92
2022-08-03T23:18:37.292Z,23.94
2022-08-03T23:20:41.722Z,23.91
2022-08-03T23:22:48.468Z,23.87
2022-08-03T23:24:54.726Z,23.71
2022-08-03T23:26:58.038Z,23.72
2022-08-03T23:29:02.364Z,23.73
2022-08-03T23:31:08.349Z,23.66
2022-08-03T23:33:13.167Z,23.70
2022-08-03T23:36:18.818Z,23.73
2022-08-03T23:38:10.805Z,23.55
2022-08-03T23:40:24.238Z,23.48
2022-08-03T23:42:28.362Z,23.27
2022-08-03T23:44:32.388Z,23.19
2022-08-03T23:48:39.450Z,22.95
2022-08-03T23:50:46.693Z,23.07
2022-08-03T23:53:01.376Z,23.10
2022-08-03T23:55:20.529Z,23.07
2022-08-03T23:57:33.732Z,22.99
2022-08-03T23:59:49.058Z,22.93
